createdAt,value
2019-04-27T00:01:29.477Z,23.20
2019-04-27T00:04:19.040Z,21.33
2019-04-27T00:06:48.012Z,28.10
2019-04-27T00:09:18.274Z,24.15
2019-04-27T00:11:48.505Z,29.45
2019-04-27T00:14:18.210Z,24.37
2019-04-27T00:16:51.367Z,23.55
2019-04-27T00:19:39.847Z,28.60
2019-04-27T00:22:10.271Z,25.52
2019-04-27T00:24:38.885Z,20.72
2019-04-27T00:27:07.714Z,28.98
2019-04-27T00:29:36.518Z,20.62
2019-04-27T00:32:05.830Z,24.72
2019-04-27T00:34:35.022Z,25.12
2019-04-27T00:37:08.310Z,24.90
2019-04-27T00:39:38.554Z,29.65
2019-04-27T00:42:07.263Z,25.37
2019-04-27T00:44:35.824Z,28.05
2019-04-27T00:47:06.348Z,25.30
2019-04-27T00:49:35.090Z,23.95
2019-04-27T00:52:04.406Z,27.15
2019-04-27T00:54:34.004Z,25.85
2019-04-27T00:57:19.541Z,26.87
2019-04-27T01:00:06.268Z,29.42
2019-04-27T01:02:45.345Z,34.03
2019-04-27T01:05:15.914Z,30.62
2019-04-27T01:07:44.460Z,30.80
2019-04-27T01:10:13.526Z,27.60
2019-04-27T01:12:42.992Z,27.37
2019-04-27T01:15:13.598Z,30.30
2019-04-27T01:17:42.273Z,29.25
2019-04-27T01:20:11.383Z,23.98
2019-04-27T01:22:40.013Z,25.77
2019-04-27T01:25:09.075Z,25.55
2019-04-27T01:27:51.472Z,31.93
2019-04-27T01:30:33.847Z,22.40
2019-04-27T01:33:02.467Z,34.35
2019-04-27T01:35:31.175Z,29.30
2019-04-27T01:38:00.057Z,29.42
2019-04-27T01:40:29.557Z,27.32
2019-04-27T01:42:58.823Z,28.70
2019-04-27T01:45:29.014Z,36.30
2019-04-27T01:47:59.547Z,33.78
2019-04-27T01:50:29.043Z,25.70
2019-04-27T01:52:58.777Z,24.60
2019-04-27T01:55:27.576Z,32.83
2019-04-27T01:57:56.196Z,28.30
2019-04-27T02:00:31.933Z,28.83
2019-04-27T02:03:02.244Z,30.80
2019-04-27T02:05:49.296Z,30.00
2019-04-27T02:08:19.475Z,32.33
2019-04-27T02:10:49.598Z,35.85
2019-04-27T02:13:18.925Z,38.23
2019-04-27T02:15:48.657Z,29.07
2019-04-27T02:18:19.307Z,29.80
2019-04-27T02:20:49.238Z,31.40
2019-04-27T02:23:19.199Z,35.45
2019-04-27T02:25:49.620Z,32.28
2019-04-27T02:28:20.075Z,31.55
2019-04-27T02:30:50.489Z,33.50
2019-04-27T02:33:30.173Z,30.20
2019-04-27T02:36:00.402Z,30.00
2019-04-27T02:38:30.475Z,32.30
2019-04-27T02:41:01.772Z,33.60
2019-04-27T02:43:40.674Z,28.45
2019-04-27T02:46:09.789Z,36.98
2019-04-27T02:48:52.803Z,24.85
2019-04-27T02:51:10.983Z,29.20
2019-04-27T02:53:55.991Z,29.55
2019-04-27T02:56:25.056Z,32.88
2019-04-27T02:58:53.997Z,40.05
2019-04-27T03:01:24.808Z,31.27
2019-04-27T03:03:53.554Z,37.98
2019-04-27T03:06:23.073Z,30.37
2019-04-27T03:08:54.181Z,37.90
2019-04-27T03:11:23.427Z,40.15
2019-04-27T03:13:53.965Z,38.02
2019-04-27T03:16:24.220Z,38.25
2019-04-27T03:19:10.093Z,42.48
2019-04-27T03:21:29.837Z,48.43
2019-04-27T03:24:00.194Z,37.70
2019-04-27T03:26:31.126Z,37.45
2019-04-27T03:29:00.106Z,36.73
2019-04-27T03:31:32.721Z,39.53
2019-04-27T03:34:04.737Z,36.95
2019-04-27T03:36:31.733Z,43.80
2019-04-27T03:39:00.179Z,43.85
2019-04-27T03:41:29.326Z,41.33
2019-04-27T03:43:59.565Z,50.30
2019-04-27T03:46:30.239Z,38.50
2019-04-27T03:49:00.040Z,38.90
2019-04-27T03:51:33.448Z,43.78
2019-04-27T03:54:03.814Z,36.85
2019-04-27T03:56:39.463Z,49.30
2019-04-27T03:59:12.170Z,40.92
2019-04-27T04:01:41.142Z,41.18
2019-04-27T04:04:10.559Z,37.78
2019-04-27T04:06:40.135Z,38.23
2019-04-27T04:09:10.477Z,45.78
2019-04-27T04:11:49.958Z,40.05
2019-04-27T04:14:25.731Z,37.33
2019-04-27T04:17:01.780Z,39.78
2019-04-27T04:19:31.560Z,49.60
2019-04-27T04:21:59.941Z,45.35
2019-04-27T04:24:31.701Z,46.85
2019-04-27T04:26:59.946Z,48.70
2019-04-27T04:29:30.705Z,43.30
2019-04-27T04:32:00.480Z,43.85
2019-04-27T04:34:29.905Z,43.87
2019-04-27T04:37:00.427Z,38.50
2019-04-27T04:39:29.720Z,41.30
2019-04-27T04:42:03.123Z,38.42
2019-04-27T04:44:36.361Z,42.20
2019-04-27T04:47:10.342Z,33.48
2019-04-27T04:49:39.811Z,44.42
2019-04-27T04:52:09.654Z,30.97
2019-04-27T04:54:40.717Z,34.90
2019-04-27T04:57:09.309Z,38.00
2019-04-27T04:59:38.984Z,31.50
2019-04-27T05:02:10.327Z,40.73
2019-04-27T05:04:39.046Z,39.65
2019-04-27T05:07:09.249Z,33.48
2019-04-27T05:09:39.563Z,39.85
2019-04-27T05:12:08.889Z,30.17
2019-04-27T05:14:38.929Z,31.25
2019-04-27T05:17:09.310Z,37.28
2019-04-27T05:19:38.919Z,32.13
2019-04-27T05:22:09.226Z,70.22
2019-04-27T05:24:39.367Z,35.58
2019-04-27T05:27:09.268Z,34.53
2019-04-27T05:29:38.950Z,43.00
2019-04-27T05:32:09.120Z,31.00
2019-04-27T05:34:39.465Z,37.13
2019-04-27T05:37:08.934Z,41.77
2019-04-27T05:39:38.928Z,38.50
2019-04-27T05:42:12.466Z,49.77
2019-04-27T05:45:06.689Z,40.00
2019-04-27T05:47:43.322Z,41.40
2019-04-27T05:50:18.263Z,36.53
2019-04-27T05:52:44.257Z,33.60
2019-04-27T05:55:13.062Z,33.70
2019-04-27T05:57:41.736Z,39.05
2019-04-27T06:00:12.155Z,44.15
2019-04-27T06:02:40.721Z,35.05
2019-04-27T06:05:09.592Z,43.85
2019-04-27T06:07:39.603Z,43.50
2019-04-27T06:10:09.552Z,41.45
2019-04-27T06:12:39.591Z,34.85
2019-04-27T06:15:09.772Z,49.48
2019-04-27T06:17:38.767Z,34.20
2019-04-27T06:20:09.057Z,50.80
2019-04-27T06:22:39.033Z,40.50
2019-04-27T06:25:11.375Z,39.48
2019-04-27T06:27:39.682Z,40.30
2019-04-27T06:30:09.329Z,44.30
2019-04-27T06:32:39.560Z,54.58
2019-04-27T06:35:12.227Z,46.13
2019-04-27T06:37:40.115Z,28.07
2019-04-27T06:40:09.779Z,42.80
2019-04-27T06:42:39.849Z,37.55
2019-04-27T06:45:09.913Z,34.58
2019-04-27T06:47:39.655Z,38.63
2019-04-27T06:50:10.152Z,39.80
2019-04-27T06:52:39.107Z,45.35
2019-04-27T06:55:09.362Z,35.78
2019-04-27T06:57:39.106Z,32.70
2019-04-27T07:00:09.341Z,31.23
2019-04-27T07:02:39.244Z,41.65
2019-04-27T07:05:08.990Z,38.58
2019-04-27T07:07:39.478Z,37.23
2019-04-27T07:10:08.743Z,65.83
2019-04-27T07:12:38.739Z,48.00
2019-04-27T07:15:08.900Z,37.33
2019-04-27T07:17:38.915Z,33.05
2019-04-27T07:20:09.020Z,41.10
2019-04-27T07:22:39.541Z,37.35
2019-04-27T07:25:09.033Z,36.38
2019-04-27T07:27:39.494Z,42.08
2019-04-27T07:30:11.870Z,27.45
2019-04-27T07:32:40.237Z,51.93
2019-04-27T07:35:09.836Z,36.10
2019-04-27T07:37:39.307Z,40.58
2019-04-27T07:40:09.062Z,39.80
2019-04-27T07:42:39.711Z,36.08
2019-04-27T07:45:15.914Z,45.35
2019-04-27T07:47:45.919Z,45.48
2019-04-27T07:50:14.621Z,34.60
2019-04-27T07:52:43.267Z,44.73
2019-04-27T07:55:12.088Z,33.08
2019-04-27T07:57:40.741Z,31.48
2019-04-27T08:00:10.326Z,39.03
2019-04-27T08:02:39.168Z,31.27
2019-04-27T08:05:09.323Z,36.25
2019-04-27T08:07:39.125Z,31.45
2019-04-27T08:10:09.727Z,32.93
2019-04-27T08:12:38.683Z,39.50
2019-04-27T08:15:08.906Z,32.53
2019-04-27T08:17:38.321Z,34.67
2019-04-27T08:20:09.109Z,24.90
2019-04-27T08:22:38.908Z,23.32
2019-04-27T08:25:09.445Z,42.00
2019-04-27T08:27:39.795Z,33.10
2019-04-27T08:30:10.370Z,24.63
2019-04-27T08:32:41.589Z,32.78
2019-04-27T08:35:10.677Z,25.12
2019-04-27T08:37:39.341Z,27.02
2019-04-27T08:40:09.340Z,23.62
2019-04-27T08:42:39.116Z,31.55
2019-04-27T08:45:09.404Z,22.10
2019-04-27T08:47:39.424Z,28.75
2019-04-27T08:50:09.196Z,31.95
2019-04-27T08:52:39.384Z,30.35
2019-04-27T08:55:09.562Z,19.57
2019-04-27T08:57:38.910Z,27.42
2019-04-27T09:00:11.005Z,29.32
2019-04-27T09:02:46.551Z,24.70
2019-04-27T09:05:10.049Z,26.93
2019-04-27T09:07:43.267Z,24.57
2019-04-27T09:10:32.305Z,36.73
2019-04-27T09:13:02.544Z,27.22
2019-04-27T09:15:39.136Z,25.62
2019-04-27T09:18:09.002Z,22.27
2019-04-27T09:20:51.241Z,27.37
2019-04-27T09:23:19.971Z,24.83
2019-04-27T09:25:49.600Z,30.15
2019-04-27T09:28:20.169Z,27.45
2019-04-27T09:30:49.791Z,22.75
2019-04-27T09:33:18.690Z,21.80
2019-04-27T09:35:48.356Z,27.10
2019-04-27T09:38:18.476Z,21.73
2019-04-27T09:40:47.177Z,22.20
2019-04-27T09:43:15.839Z,26.25
2019-04-27T09:45:44.367Z,26.68
2019-04-27T09:48:13.078Z,21.33
2019-04-27T09:50:41.828Z,26.02
2019-04-27T09:53:10.450Z,20.72
2019-04-27T09:55:39.051Z,25.90
2019-04-27T09:58:07.738Z,26.55
2019-04-27T10:00:36.706Z,26.30
2019-04-27T10:03:06.561Z,21.60
2019-04-27T10:05:36.734Z,22.67
2019-04-27T10:08:06.213Z,23.90
2019-04-27T10:10:36.999Z,28.55
2019-04-27T10:13:06.977Z,21.10
2019-04-27T10:15:35.660Z,27.85
2019-04-27T10:18:06.063Z,23.73
2019-04-27T10:20:40.421Z,24.50
2019-04-27T10:23:06.283Z,25.35
2019-04-27T10:25:35.542Z,29.50
2019-04-27T10:28:06.716Z,29.40
2019-04-27T10:30:35.919Z,24.77
2019-04-27T10:33:07.645Z,23.90
2019-04-27T10:35:36.360Z,37.48
2019-04-27T10:38:05.300Z,23.50
2019-04-27T10:40:33.879Z,22.30
2019-04-27T10:43:02.485Z,25.50
2019-04-27T10:45:31.158Z,28.00
2019-04-27T10:47:59.899Z,21.12
2019-04-27T10:50:28.646Z,23.32
2019-04-27T10:52:59.303Z,31.87
2019-04-27T10:55:27.837Z,26.80
2019-04-27T10:57:56.495Z,36.03
2019-04-27T11:00:27.017Z,32.38
2019-04-27T11:02:56.535Z,36.53
2019-04-27T11:05:31.060Z,32.05
2019-04-27T11:08:00.087Z,35.27
2019-04-27T11:10:28.695Z,28.73
2019-04-27T11:12:57.510Z,34.63
2019-04-27T11:15:26.510Z,28.60
2019-04-27T11:17:56.117Z,28.92
2019-04-27T11:20:27.477Z,35.52
2019-04-27T11:23:06.665Z,26.45
2019-04-27T11:25:26.361Z,29.65
2019-04-27T11:27:57.475Z,24.87
2019-04-27T11:30:25.542Z,37.15
2019-04-27T11:32:56.729Z,35.23
2019-04-27T11:35:26.062Z,26.50
2019-04-27T11:37:56.364Z,23.90
2019-04-27T11:40:25.575Z,30.75
2019-04-27T11:42:57.065Z,24.30
2019-04-27T11:45:24.473Z,25.10
2019-04-27T11:47:53.166Z,27.40
2019-04-27T11:50:21.974Z,31.85
2019-04-27T11:52:52.177Z,31.00
2019-04-27T11:55:20.893Z,26.25
2019-04-27T11:57:49.652Z,32.53
2019-04-27T12:00:21.365Z,33.88
2019-04-27T12:02:50.103Z,32.93
2019-04-27T12:05:19.318Z,30.05
2019-04-27T12:07:48.011Z,27.48
2019-04-27T12:10:17.741Z,32.60
2019-04-27T12:12:46.474Z,28.70
2019-04-27T12:15:16.232Z,25.77
2019-04-27T12:17:46.123Z,28.05
2019-04-27T12:20:17.512Z,22.13
2019-04-27T12:22:45.416Z,23.07
2019-04-27T12:25:14.455Z,22.90
2019-04-27T12:27:45.837Z,31.10
2019-04-27T12:30:22.518Z,24.43
2019-04-27T12:32:51.815Z,19.77
2019-04-27T12:35:25.564Z,23.25
2019-04-27T12:37:55.811Z,22.87
2019-04-27T12:40:26.668Z,22.75
2019-04-27T12:42:55.110Z,28.20
2019-04-27T12:45:23.994Z,21.33
2019-04-27T12:47:52.732Z,24.87
2019-04-27T12:50:21.508Z,27.82
2019-04-27T12:52:51.858Z,22.90
2019-04-27T12:55:28.585Z,28.27
2019-04-27T12:58:14.214Z,32.05
2019-04-27T13:01:02.702Z,23.67
2019-04-27T13:03:31.306Z,24.00
2019-04-27T13:05:59.938Z,39.08
2019-04-27T13:08:28.669Z,26.40
2019-04-27T13:10:57.519Z,30.65
2019-04-27T13:13:26.749Z,31.30
2019-04-27T13:15:56.332Z,24.05
2019-04-27T13:18:25.783Z,27.48
2019-04-27T13:20:54.927Z,24.98
2019-04-27T13:23:23.766Z,23.20
2019-04-27T13:25:52.351Z,23.00
2019-04-27T13:28:21.032Z,26.27
2019-04-27T13:30:49.664Z,23.77
2019-04-27T13:33:18.238Z,21.57
2019-04-27T13:35:46.878Z,35.48
2019-04-27T13:38:17.851Z,32.85
2019-04-27T13:40:47.461Z,28.05
2019-04-27T13:43:20.279Z,24.92
2019-04-27T13:48:38.771Z,20.75
2019-04-27T13:51:12.049Z,25.90
2019-04-27T13:53:40.775Z,20.82
2019-04-27T13:56:17.144Z,23.42
2019-04-27T13:58:46.408Z,23.92
2019-04-27T14:01:15.109Z,22.00
2019-04-27T14:03:45.158Z,19.50
2019-04-27T14:06:14.048Z,25.10
2019-04-27T14:08:42.694Z,26.90
2019-04-27T14:11:11.329Z,16.60
2019-04-27T14:13:39.990Z,16.12
2019-04-27T14:16:08.821Z,17.45
2019-04-27T14:18:38.433Z,21.77
2019-04-27T14:21:09.327Z,20.50
2019-04-27T14:23:38.609Z,24.27
2019-04-27T14:26:08.803Z,31.52
2019-04-27T14:28:37.626Z,26.93
2019-04-27T14:31:06.386Z,24.35
2019-04-27T14:33:35.045Z,24.75
2019-04-27T14:36:03.878Z,29.50
2019-04-27T14:38:32.481Z,23.95
2019-04-27T14:41:01.179Z,24.65
2019-04-27T14:43:29.737Z,22.73
2019-04-27T14:45:58.447Z,25.30
2019-04-27T14:48:27.096Z,21.87
2019-04-27T14:50:56.667Z,23.67
2019-04-27T14:53:25.238Z,26.02
2019-04-27T14:55:53.910Z,27.58
2019-04-27T14:58:22.518Z,25.48
2019-04-27T15:00:51.155Z,24.02
2019-04-27T15:03:19.757Z,19.55
2019-04-27T15:05:49.608Z,23.47
2019-04-27T15:08:18.797Z,32.98
2019-04-27T15:10:47.538Z,17.52
2019-04-27T15:13:18.637Z,24.52
2019-04-27T15:15:46.515Z,31.17
2019-04-27T15:18:15.363Z,23.98
2019-04-27T15:20:46.577Z,22.25
2019-04-27T15:23:15.534Z,23.70
2019-04-27T15:25:47.057Z,28.17
2019-04-27T15:28:16.097Z,17.82
2019-04-27T15:30:59.574Z,23.90
2019-04-27T15:33:41.798Z,21.57
2019-04-27T15:36:19.350Z,20.80
2019-04-27T15:38:51.317Z,20.55
2019-04-27T15:41:36.765Z,18.45
2019-04-27T15:44:06.104Z,28.52
2019-04-27T15:46:35.798Z,23.95
2019-04-27T15:49:08.034Z,21.97
2019-04-27T15:51:35.174Z,23.95
2019-04-27T15:54:04.237Z,28.47
2019-04-27T15:56:35.082Z,20.30
2019-04-27T15:59:03.613Z,29.45
2019-04-27T16:01:35.907Z,29.20
2019-04-27T16:04:06.976Z,23.20
2019-04-27T16:06:33.006Z,20.75
2019-04-27T16:09:01.859Z,22.05
2019-04-27T16:11:30.561Z,23.27
2019-04-27T16:14:02.959Z,22.22
2019-04-27T16:16:33.375Z,20.68
2019-04-27T16:19:03.672Z,22.65
2019-04-27T16:21:31.501Z,24.70
2019-04-27T16:24:00.270Z,23.95
2019-04-27T16:26:28.971Z,18.75
2019-04-27T16:28:58.063Z,33.55
2019-04-27T16:31:31.422Z,28.30
2019-04-27T16:33:59.113Z,20.45
2019-04-27T16:36:28.823Z,17.42
2019-04-27T16:38:59.165Z,21.10
2019-04-27T16:41:28.172Z,19.30
2019-04-27T16:43:58.154Z,29.18
2019-04-27T16:46:28.528Z,22.80
2019-04-27T16:48:59.289Z,20.85
2019-04-27T16:51:33.281Z,19.35
2019-04-27T16:53:58.447Z,22.50
2019-04-27T16:56:28.512Z,22.62
2019-04-27T16:59:02.641Z,21.62
2019-04-27T17:01:30.385Z,21.77
2019-04-27T17:03:59.576Z,25.90
2019-04-27T17:06:29.546Z,17.90
2019-04-27T17:09:05.743Z,28.12
2019-04-27T17:11:29.796Z,29.05
2019-04-27T17:14:03.214Z,20.30
2019-04-27T17:16:45.797Z,24.43
2019-04-27T17:19:21.833Z,26.52
2019-04-27T17:21:50.502Z,29.45
2019-04-27T17:24:42.013Z,27.25
2019-04-27T17:27:06.163Z,23.35
2019-04-27T17:29:38.528Z,26.68
2019-04-27T17:32:08.560Z,27.23
2019-04-27T17:34:37.242Z,20.10
2019-04-27T17:37:05.938Z,27.77
2019-04-27T17:39:34.550Z,16.97
2019-04-27T17:42:03.425Z,21.50
2019-04-27T17:44:32.051Z,23.67
2019-04-27T17:47:00.673Z,17.42
2019-04-27T17:49:29.426Z,25.17
2019-04-27T17:51:58.640Z,19.80
2019-04-27T17:54:28.991Z,20.20
2019-04-27T17:56:57.643Z,24.10
2019-04-27T17:59:26.221Z,23.32
2019-04-27T18:02:00.807Z,17.45
2019-04-27T18:04:25.235Z,18.45
2019-04-27T18:06:55.548Z,26.30
2019-04-27T18:09:24.173Z,27.20
2019-04-27T18:11:54.369Z,28.10
2019-04-27T18:14:23.286Z,23.90
2019-04-27T18:16:51.986Z,24.02
2019-04-27T18:19:22.295Z,22.25
2019-04-27T18:22:00.876Z,26.40
2019-04-27T18:24:33.346Z,28.47
2019-04-27T18:27:15.638Z,24.82
2019-04-27T18:29:44.429Z,25.67
2019-04-27T18:32:13.127Z,27.73
2019-04-27T18:34:45.332Z,28.87
2019-04-27T18:37:14.426Z,26.65
2019-04-27T18:39:45.340Z,32.65
2019-04-27T18:42:12.714Z,27.52
2019-04-27T18:44:41.427Z,28.32
2019-04-27T18:47:10.062Z,23.47
2019-04-27T18:49:55.142Z,25.77
2019-04-27T18:52:47.240Z,20.72
2019-04-27T18:55:16.724Z,25.85
2019-04-27T18:57:41.854Z,32.88
2019-04-27T19:00:12.718Z,25.62
2019-04-27T19:02:41.472Z,29.32
2019-04-27T19:05:10.241Z,37.35
2019-04-27T19:07:38.830Z,26.85
2019-04-27T19:10:08.973Z,29.07
2019-04-27T19:12:39.417Z,27.22
2019-04-27T19:15:09.341Z,30.90
2019-04-27T19:17:38.661Z,26.20
2019-04-27T19:20:10.499Z,30.25
2019-04-27T19:22:39.267Z,30.40
2019-04-27T19:25:09.818Z,22.55
2019-04-27T19:27:58.208Z,26.37
2019-04-27T19:30:28.555Z,32.35
2019-04-27T19:32:57.197Z,32.78
2019-04-27T19:35:26.003Z,29.02
2019-04-27T19:37:54.575Z,34.55
2019-04-27T19:40:23.211Z,23.52
2019-04-27T19:42:51.845Z,28.47
2019-04-27T19:45:21.121Z,36.55
2019-04-27T19:47:49.986Z,30.25
2019-04-27T19:50:19.312Z,22.17
2019-04-27T19:52:50.169Z,35.30
2019-04-27T19:55:18.962Z,25.50
2019-04-27T19:57:49.629Z,31.33
2019-04-27T20:00:20.587Z,22.45
2019-04-27T20:02:49.265Z,28.52
2019-04-27T20:05:18.757Z,28.62
2019-04-27T20:07:48.247Z,28.50
2019-04-27T20:10:16.997Z,25.95
2019-04-27T20:12:45.610Z,23.27
2019-04-27T20:15:14.421Z,28.83
2019-04-27T20:17:43.086Z,25.40
2019-04-27T20:20:11.930Z,24.10
2019-04-27T20:22:40.538Z,32.35
2019-04-27T20:25:11.229Z,23.90
2019-04-27T20:27:48.777Z,25.10
2019-04-27T20:30:12.697Z,30.55
2019-04-27T20:32:41.362Z,33.30
2019-04-27T20:35:11.721Z,23.92
2019-04-27T20:37:41.544Z,21.25
2019-04-27T20:40:11.616Z,27.37
2019-04-27T20:42:41.518Z,23.98
2019-04-27T20:45:11.966Z,31.10
2019-04-27T20:47:40.886Z,25.02
2019-04-27T20:50:09.671Z,22.65
2019-04-27T20:52:42.763Z,16.87
2019-04-27T20:55:12.827Z,23.42
2019-04-27T20:57:41.735Z,22.00
2019-04-27T21:00:12.230Z,32.45
2019-04-27T21:02:42.561Z,28.70
2019-04-27T21:05:12.907Z,26.97
2019-04-27T21:07:52.869Z,29.55
2019-04-27T21:10:21.731Z,22.70
2019-04-27T21:12:51.897Z,20.88
2019-04-27T21:15:21.438Z,20.60
2019-04-27T21:17:51.232Z,24.60
2019-04-27T21:20:21.821Z,21.57
2019-04-27T21:22:53.227Z,21.17
2019-04-27T21:25:20.781Z,23.65
2019-04-27T21:27:51.254Z,18.80
2019-04-27T21:30:21.307Z,24.52
2019-04-27T21:32:50.843Z,22.85
2019-04-27T21:35:20.987Z,21.52
2019-04-27T21:37:51.152Z,21.87
2019-04-27T21:40:21.560Z,18.65
2019-04-27T21:42:51.294Z,17.42
2019-04-27T21:45:21.750Z,19.75
2019-04-27T21:47:51.888Z,16.73
2019-04-27T21:50:23.192Z,23.45
2019-04-27T21:52:53.325Z,23.47
2019-04-27T21:55:23.554Z,15.68
2019-04-27T21:57:52.571Z,16.55
2019-04-27T22:00:28.706Z,16.67
2019-04-27T22:02:57.289Z,18.35
2019-04-27T22:05:25.996Z,16.27
2019-04-27T22:07:54.556Z,15.38
2019-04-27T22:10:23.226Z,16.52
2019-04-27T22:12:51.923Z,23.77
2019-04-27T22:15:21.207Z,14.43
2019-04-27T22:17:49.817Z,14.68
2019-04-27T22:20:20.800Z,26.85
2019-04-27T22:22:51.682Z,16.07
2019-04-27T22:25:22.026Z,16.40
2019-04-27T22:27:51.379Z,19.35
2019-04-27T22:30:21.056Z,12.25
2019-04-27T22:32:51.371Z,21.95
2019-04-27T22:35:20.706Z,14.73
2019-04-27T22:37:51.747Z,15.95
2019-04-27T22:40:24.811Z,13.40
2019-04-27T22:43:01.615Z,17.17
2019-04-27T22:45:31.984Z,22.75
2019-04-27T22:48:01.292Z,14.03
2019-04-27T22:50:31.264Z,11.78
2019-04-27T22:52:59.985Z,17.67
2019-04-27T22:55:28.580Z,18.90
2019-04-27T22:58:14.274Z,15.30
2019-04-27T23:00:51.316Z,18.75
2019-04-27T23:03:24.440Z,16.90
2019-04-27T23:05:53.116Z,14.45
2019-04-27T23:08:22.665Z,12.53
2019-04-27T23:10:51.580Z,15.00
2019-04-27T23:13:21.347Z,16.00
2019-04-27T23:15:51.869Z,17.98
2019-04-27T23:18:20.830Z,14.68
2019-04-27T23:20:52.323Z,17.23
2019-04-27T23:23:21.799Z,19.37
2019-04-27T23:25:51.302Z,17.62
2019-04-27T23:28:20.879Z,19.95
2019-04-27T23:30:54.245Z,14.68
2019-04-27T23:33:22.809Z,14.10
2019-04-27T23:35:51.728Z,19.80
2019-04-27T23:38:20.970Z,16.75
2019-04-27T23:40:51.642Z,14.05
2019-04-27T23:43:19.952Z,12.98
2019-04-27T23:45:48.553Z,15.43
2019-04-27T23:48:17.159Z,14.98
2019-04-27T23:50:47.420Z,15.85
2019-04-27T23:53:21.912Z,16.60
2019-04-27T23:55:50.674Z,13.20
2019-04-27T23:58:19.436Z,12.93
